Forside
METAR-TAF:

METAR-TAF

Lufthavne :

Novosibirsk, Rusland

Breddekreds: 55-01N, længdekreds: 082-38E, højde: 111 m

Aktuelle vejr

Denne rapport blev lavet for 32 minutter siden, kl. 20:30 UTC
Vind stille
Temperatur 11°C
Fugtighed 94%
Tryk 1020 hPa
Sigt: 1600 m
dis

METAR: UNNT 142030Z 00000MPS 9000 1600N BR NSC 11/10 Q1020 R07/090070 R16/090070 NOSIG RMK QFE755/1007

Tid: 04:02 (21:02 UTC)

Vejrudsigter

Denne rapport blev lavet for 1 time og 2 minutter siden, kl. 20:00 UTC
Foreløbig gælder fra 14 på 21 UTC til 15 på 21 UTC
Vind 6 kt fra sydøst med vindstød på up til 16 kt
Sigt 10 km eller mere
ingen skyer under 1500m og ingen cumulonimbus
Midlertidig
fra 14 på 21 UTC til 15 på 02 UTC
Sigt: 0150 m
Brudte skyer i en højde af 200 ft
tåge
Midlertidig
fra 15 på 02 UTC til 15 på 04 UTC
Sigt: 3100 m
dis

TAF: UNNT 142000Z 1421/1521 14003G08MPS CAVOK TEMPO 1421/1502 0150 FG BKN002 TEMPO 1502/1504 3100 BR

Vejrobservationer og prognoser fra mere end 4000 lufthavne (METAR og TAF).

De gule og røde prikker repræsenterer de meteorologiske stationer.

Flyt musen over at se navnet på stationen.

Så klik over at se vejr observationer og prognoser.

At skifte det kort: Klik på de grønne knapper med et sort kors for at zoome ind; på den grønne knap med en bindestreg for at zoome ud; eller på de grønne pile for tilstødende kort.


METAR-TAF: